sensor_id;sensor_type;location;lat;lon;timestamp;pressure;altitude;pressure_sealevel;temperature;humidity
10978;BME280;5542;48.272;10.794;2022-07-29T00:01:36;95699.34;;;20.89;73.16
10978;BME280;5542;48.272;10.794;2022-07-29T00:04:03;95695.03;;;20.74;73.14
10978;BME280;5542;48.272;10.794;2022-07-29T00:06:29;95696.78;;;20.51;74.35
10978;BME280;5542;48.272;10.794;2022-07-29T00:08:56;95688.16;;;20.35;75.08
10978;BME280;5542;48.272;10.794;2022-07-29T00:11:23;95680.44;;;20.34;75.37
10978;BME280;5542;48.272;10.794;2022-07-29T00:13:49;95675.03;;;20.39;75.22
10978;BME280;5542;48.272;10.794;2022-07-29T00:16:16;95666.00;;;20.35;75.57
10978;BME280;5542;48.272;10.794;2022-07-29T00:18:44;95661.44;;;20.35;75.70
10978;BME280;5542;48.272;10.794;2022-07-29T00:21:10;95653.38;;;20.21;76.49
10978;BME280;5542;48.272;10.794;2022-07-29T00:23:37;95660.91;;;20.19;76.99
10978;BME280;5542;48.272;10.794;2022-07-29T00:26:03;95659.31;;;20.18;76.94
10978;BME280;5542;48.272;10.794;2022-07-29T00:28:30;95654.56;;;20.15;77.21
10978;BME280;5542;48.272;10.794;2022-07-29T00:30:56;95658.47;;;20.04;77.66
10978;BME280;5542;48.272;10.794;2022-07-29T00:33:23;95653.78;;;19.96;78.22
10978;BME280;5542;48.272;10.794;2022-07-29T00:35:51;95650.63;;;19.94;77.98
10978;BME280;5542;48.272;10.794;2022-07-29T00:38:18;95650.66;;;19.89;78.63
10978;BME280;5542;48.272;10.794;2022-07-29T00:40:45;95643.75;;;19.88;78.42
10978;BME280;5542;48.272;10.794;2022-07-29T00:43:13;95643.75;;;19.88;78.63
10978;BME280;5542;48.272;10.794;2022-07-29T00:45:40;95652.13;;;20.00;77.44
10978;BME280;5542;48.272;10.794;2022-07-29T00:48:07;95649.16;;;20.02;77.07
10978;BME280;5542;48.272;10.794;2022-07-29T00:50:34;95647.78;;;20.04;76.57
10978;BME280;5542;48.272;10.794;2022-07-29T00:53:04;95648.50;;;19.91;77.19
10978;BME280;5542;48.272;10.794;2022-07-29T00:55:31;95644.84;;;19.87;77.45
10978;BME280;5542;48.272;10.794;2022-07-29T00:57:58;95640.84;;;19.84;77.77
10978;BME280;5542;48.272;10.794;2022-07-29T01:00:27;95640.81;;;19.89;77.40
10978;BME280;5542;48.272;10.794;2022-07-29T01:02:53;95640.59;;;19.86;77.47
10978;BME280;5542;48.272;10.794;2022-07-29T01:05:22;95643.53;;;19.84;77.64
10978;BME280;5542;48.272;10.794;2022-07-29T01:07:52;95633.59;;;19.90;77.62
10978;BME280;5542;48.272;10.794;2022-07-29T01:10:21;95623.94;;;19.94;76.89
10978;BME280;5542;48.272;10.794;2022-07-29T01:12:50;95617.44;;;19.81;77.29
10978;BME280;5542;48.272;10.794;2022-07-29T01:15:17;95622.69;;;19.86;76.88
10978;BME280;5542;48.272;10.794;2022-07-29T01:17:46;95620.41;;;19.80;77.12
10978;BME280;5542;48.272;10.794;2022-07-29T01:20:20;95623.63;;;19.77;77.32
10978;BME280;5542;48.272;10.794;2022-07-29T01:23:12;95615.41;;;19.73;77.30
10978;BME280;5542;48.272;10.794;2022-07-29T01:25:54;95608.78;;;19.71;76.97
10978;BME280;5542;48.272;10.794;2022-07-29T01:28:46;95596.44;;;19.75;76.27
10978;BME280;5542;48.272;10.794;2022-07-29T01:31:16;95600.38;;;19.58;77.16
10978;BME280;5542;48.272;10.794;2022-07-29T01:33:49;95596.69;;;19.54;76.97
10978;BME280;5542;48.272;10.794;2022-07-29T01:36:22;95597.34;;;19.46;77.08
10978;BME280;5542;48.272;10.794;2022-07-29T01:38:54;95594.81;;;19.36;77.22
10978;BME280;5542;48.272;10.794;2022-07-29T01:41:26;95600.50;;;19.29;77.68
10978;BME280;5542;48.272;10.794;2022-07-29T01:44:02;95601.50;;;19.14;77.85
10978;BME280;5542;48.272;10.794;2022-07-29T01:46:31;95595.75;;;19.02;78.69
10978;BME280;5542;48.272;10.794;2022-07-29T01:49:02;95600.75;;;19.09;78.11
10978;BME280;5542;48.272;10.794;2022-07-29T01:51:36;95597.97;;;18.95;78.40
10978;BME280;5542;48.272;10.794;2022-07-29T01:54:10;95588.97;;;18.91;78.30
10978;BME280;5542;48.272;10.794;2022-07-29T01:56:39;95583.16;;;18.84;78.39
10978;BME280;5542;48.272;10.794;2022-07-29T01:59:08;95583.28;;;18.74;78.89
10978;BME280;5542;48.272;10.794;2022-07-29T02:01:36;95581.47;;;18.69;79.22
10978;BME280;5542;48.272;10.794;2022-07-29T02:04:06;95574.06;;;18.61;79.95
10978;BME280;5542;48.272;10.794;2022-07-29T02:06:37;95572.94;;;18.67;79.93
10978;BME280;5542;48.272;10.794;2022-07-29T02:09:06;95572.88;;;18.77;78.48
10978;BME280;5542;48.272;10.794;2022-07-29T02:11:34;95570.53;;;18.65;79.02
10978;BME280;5542;48.272;10.794;2022-07-29T02:14:02;95562.06;;;18.63;79.24
10978;BME280;5542;48.272;10.794;2022-07-29T02:16:33;95561.75;;;18.70;79.33
10978;BME280;5542;48.272;10.794;2022-07-29T02:19:02;95566.22;;;18.75;79.16
10978;BME280;5542;48.272;10.794;2022-07-29T02:21:30;95567.97;;;18.84;78.94
10978;BME280;5542;48.272;10.794;2022-07-29T02:24:00;95567.66;;;18.91;78.45
10978;BME280;5542;48.272;10.794;2022-07-29T02:26:27;95569.16;;;18.97;78.21
10978;BME280;5542;48.272;10.794;2022-07-29T02:28:57;95563.28;;;19.00;77.86
10978;BME280;5542;48.272;10.794;2022-07-29T02:31:29;95565.88;;;19.05;77.00
10978;BME280;5542;48.272;10.794;2022-07-29T02:34:00;95559.75;;;19.05;76.58
10978;BME280;5542;48.272;10.794;2022-07-29T02:36:29;95564.56;;;19.03;76.53
10978;BME280;5542;48.272;10.794;2022-07-29T02:38:58;95557.34;;;19.03;76.78
10978;BME280;5542;48.272;10.794;2022-07-29T02:41:28;95549.34;;;19.03;76.96
10978;BME280;5542;48.272;10.794;2022-07-29T02:44:01;95547.22;;;19.05;76.97
10978;BME280;5542;48.272;10.794;2022-07-29T02:46:31;95550.38;;;19.07;76.67
10978;BME280;5542;48.272;10.794;2022-07-29T02:49:04;95539.22;;;19.05;76.51
10978;BME280;5542;48.272;10.794;2022-07-29T02:51:42;95546.63;;;19.08;76.57
10978;BME280;5542;48.272;10.794;2022-07-29T02:54:14;95553.56;;;19.09;76.33
10978;BME280;5542;48.272;10.794;2022-07-29T02:56:45;95559.75;;;19.05;76.33
10978;BME280;5542;48.272;10.794;2022-07-29T02:59:14;95558.44;;;19.02;76.25
10978;BME280;5542;48.272;10.794;2022-07-29T03:01:45;95554.50;;;19.00;76.29
10978;BME280;5542;48.272;10.794;2022-07-29T03:04:14;95561.69;;;18.99;76.26
10978;BME280;5542;48.272;10.794;2022-07-29T03:06:43;95560.88;;;18.99;76.05
10978;BME280;5542;48.272;10.794;2022-07-29T03:09:10;95558.50;;;18.97;75.91
10978;BME280;5542;48.272;10.794;2022-07-29T03:11:39;95564.63;;;18.98;75.76
10978;BME280;5542;48.272;10.794;2022-07-29T03:14:06;95560.09;;;18.98;75.75
10978;BME280;5542;48.272;10.794;2022-07-29T03:16:33;95552.09;;;18.98;75.66
10978;BME280;5542;48.272;10.794;2022-07-29T03:19:02;95556.06;;;19.01;75.81
10978;BME280;5542;48.272;10.794;2022-07-29T03:21:31;95557.94;;;19.00;75.74
10978;BME280;5542;48.272;10.794;2022-07-29T03:23:57;95547.78;;;19.02;75.60
10978;BME280;5542;48.272;10.794;2022-07-29T03:26:24;95555.00;;;19.02;75.13
10978;BME280;5542;48.272;10.794;2022-07-29T03:28:51;95566.78;;;18.96;75.31
10978;BME280;5542;48.272;10.794;2022-07-29T03:31:18;95560.16;;;18.93;75.47
10978;BME280;5542;48.272;10.794;2022-07-29T03:33:44;95558.00;;;18.95;75.40
10978;BME280;5542;48.272;10.794;2022-07-29T03:36:11;95557.47;;;18.93;75.32
10978;BME280;5542;48.272;10.794;2022-07-29T03:38:41;95567.66;;;18.91;75.26
10978;BME280;5542;48.272;10.794;2022-07-29T03:41:10;95561.78;;;18.89;75.42
10978;BME280;5542;48.272;10.794;2022-07-29T03:43:39;95578.44;;;18.81;75.56
10978;BME280;5542;48.272;10.794;2022-07-29T03:46:08;95579.03;;;18.73;75.55
10978;BME280;5542;48.272;10.794;2022-07-29T03:48:37;95587.19;;;18.28;77.88
10978;BME280;5542;48.272;10.794;2022-07-29T03:51:06;95590.97;;;17.83;80.18
10978;BME280;5542;48.272;10.794;2022-07-29T03:53:33;95597.97;;;17.74;80.34
10978;BME280;5542;48.272;10.794;2022-07-29T03:56:02;95601.66;;;17.73;80.84
10978;BME280;5542;48.272;10.794;2022-07-29T03:58:30;95606.41;;;17.86;80.55
10978;BME280;5542;48.272;10.794;2022-07-29T04:00:58;95599.69;;;17.94;80.06
10978;BME280;5542;48.272;10.794;2022-07-29T04:03:25;95598.00;;;18.03;79.79
10978;BME280;5542;48.272;10.794;2022-07-29T04:05:59;95598.25;;;18.06;79.44
10978;BME280;5542;48.272;10.794;2022-07-29T04:08:25;95595.06;;;18.09;79.29
10978;BME280;5542;48.272;10.794;2022-07-29T04:10:52;95592.84;;;18.16;79.12
10978;BME280;5542;48.272;10.794;2022-07-29T04:13:20;95600.00;;;18.21;78.97
10978;BME280;5542;48.272;10.794;2022-07-29T04:15:47;95590.09;;;18.27;78.75
10978;BME280;5542;48.272;10.794;2022-07-29T04:18:13;95590.88;;;18.27;78.44
10978;BME280;5542;48.272;10.794;2022-07-29T04:20:40;95596.78;;;18.24;78.37
10978;BME280;5542;48.272;10.794;2022-07-29T04:23:06;95601.31;;;18.24;78.31
10978;BME280;5542;48.272;10.794;2022-07-29T04:25:33;95606.34;;;18.25;78.19
10978;BME280;5542;48.272;10.794;2022-07-29T04:28:02;95612.19;;;18.27;78.25
10978;BME280;5542;48.272;10.794;2022-07-29T04:30:31;95615.38;;;18.29;78.21
10978;BME280;5542;48.272;10.794;2022-07-29T04:32:59;95618.53;;;18.31;78.15
10978;BME280;5542;48.272;10.794;2022-07-29T04:35:26;95628.66;;;18.34;78.16
10978;BME280;5542;48.272;10.794;2022-07-29T04:37:52;95623.31;;;18.34;78.17
10978;BME280;5542;48.272;10.794;2022-07-29T04:40:19;95628.88;;;18.38;78.09
10978;BME280;5542;48.272;10.794;2022-07-29T04:42:46;95620.31;;;18.41;77.94
10978;BME280;5542;48.272;10.794;2022-07-29T04:45:13;95626.97;;;18.43;78.10
10978;BME280;5542;48.272;10.794;2022-07-29T04:47:41;95630.13;;;18.46;78.06
10978;BME280;5542;48.272;10.794;2022-07-29T04:50:08;95626.91;;;18.49;78.02
10978;BME280;5542;48.272;10.794;2022-07-29T04:52:35;95635.69;;;18.49;78.07
10978;BME280;5542;48.272;10.794;2022-07-29T04:55:03;95635.41;;;18.51;78.19
10978;BME280;5542;48.272;10.794;2022-07-29T04:57:30;95625.00;;;18.54;77.88
10978;BME280;5542;48.272;10.794;2022-07-29T04:59:57;95631.66;;;18.57;77.96
10978;BME280;5542;48.272;10.794;2022-07-29T05:02:24;95637.78;;;18.57;78.22
10978;BME280;5542;48.272;10.794;2022-07-29T05:04:52;95635.59;;;18.59;78.33
10978;BME280;5542;48.272;10.794;2022-07-29T05:07:18;95632.66;;;18.61;78.46
10978;BME280;5542;48.272;10.794;2022-07-29T05:09:45;95637.72;;;18.62;78.26
10978;BME280;5542;48.272;10.794;2022-07-29T05:12:11;95635.84;;;18.63;78.38
10978;BME280;5542;48.272;10.794;2022-07-29T05:14:38;95639.00;;;18.65;78.39
10978;BME280;5542;48.272;10.794;2022-07-29T05:17:05;95635.56;;;18.64;78.23
10978;BME280;5542;48.272;10.794;2022-07-29T05:19:31;95638.47;;;18.68;78.34
10978;BME280;5542;48.272;10.794;2022-07-29T05:21:59;95642.47;;;18.71;78.32
10978;BME280;5542;48.272;10.794;2022-07-29T05:24:26;95640.31;;;18.73;78.42
10978;BME280;5542;48.272;10.794;2022-07-29T05:26:52;95642.69;;;18.74;78.84
10978;BME280;5542;48.272;10.794;2022-07-29T05:29:19;95640.25;;;18.78;78.51
10978;BME280;5542;48.272;10.794;2022-07-29T05:31:45;95639.22;;;18.74;78.86
10978;BME280;5542;48.272;10.794;2022-07-29T05:34:12;95638.69;;;18.77;78.94
10978;BME280;5542;48.272;10.794;2022-07-29T05:36:39;95636.50;;;18.79;78.81
10978;BME280;5542;48.272;10.794;2022-07-29T05:39:06;95639.66;;;18.86;78.27
10978;BME280;5542;48.272;10.794;2022-07-29T05:41:33;95640.09;;;18.93;78.35
10978;BME280;5542;48.272;10.794;2022-07-29T05:44:00;95641.13;;;18.97;77.96
10978;BME280;5542;48.272;10.794;2022-07-29T05:46:27;95641.06;;;19.02;78.07
10978;BME280;5542;48.272;10.794;2022-07-29T05:48:54;95637.06;;;19.05;78.82
10978;BME280;5542;48.272;10.794;2022-07-29T05:51:21;95639.88;;;19.13;79.02
10978;BME280;5542;48.272;10.794;2022-07-29T05:53:48;95634.69;;;19.22;79.04
10978;BME280;5542;48.272;10.794;2022-07-29T05:56:15;95633.66;;;19.23;78.53
10978;BME280;5542;48.272;10.794;2022-07-29T05:58:42;95634.94;;;19.26;77.54
10978;BME280;5542;48.272;10.794;2022-07-29T06:01:08;95648.19;;;19.31;77.16
10978;BME280;5542;48.272;10.794;2022-07-29T06:03:35;95647.88;;;19.37;76.67
10978;BME280;5542;48.272;10.794;2022-07-29T06:06:03;95649.94;;;19.40;76.02
10978;BME280;5542;48.272;10.794;2022-07-29T06:08:29;95649.16;;;19.40;76.20
10978;BME280;5542;48.272;10.794;2022-07-29T06:10:56;95658.19;;;19.44;76.90
10978;BME280;5542;48.272;10.794;2022-07-29T06:13:24;95657.38;;;19.43;77.82
10978;BME280;5542;48.272;10.794;2022-07-29T06:15:50;95657.75;;;19.56;78.85
10978;BME280;5542;48.272;10.794;2022-07-29T06:18:17;95657.31;;;19.73;76.97
10978;BME280;5542;48.272;10.794;2022-07-29T06:20:45;95658.97;;;19.68;76.46
10978;BME280;5542;48.272;10.794;2022-07-29T06:23:12;95655.72;;;19.72;76.78
10978;BME280;5542;48.272;10.794;2022-07-29T06:25:40;95658.47;;;19.66;76.96
10978;BME280;5542;48.272;10.794;2022-07-29T06:28:06;95651.25;;;19.67;77.07
10978;BME280;5542;48.272;10.794;2022-07-29T06:30:34;95651.09;;;19.77;77.23
10978;BME280;5542;48.272;10.794;2022-07-29T06:33:01;95655.50;;;19.87;77.41
10978;BME280;5542;48.272;10.794;2022-07-29T06:35:28;95659.25;;;20.24;78.95
10978;BME280;5542;48.272;10.794;2022-07-29T06:37:54;95662.53;;;20.34;78.36
10978;BME280;5542;48.272;10.794;2022-07-29T06:40:21;95667.41;;;20.46;76.13
10978;BME280;5542;48.272;10.794;2022-07-29T06:43:05;95669.09;;;20.61;74.40
10978;BME280;5542;48.272;10.794;2022-07-29T06:45:34;95667.03;;;20.71;73.54
10978;BME280;5542;48.272;10.794;2022-07-29T06:48:01;95662.78;;;20.70;73.26
10978;BME280;5542;48.272;10.794;2022-07-29T06:50:27;95672.47;;;20.66;75.49
10978;BME280;5542;48.272;10.794;2022-07-29T06:52:54;95667.88;;;20.86;76.11
10978;BME280;5542;48.272;10.794;2022-07-29T06:55:21;95669.28;;;21.11;75.23
10978;BME280;5542;48.272;10.794;2022-07-29T06:57:48;95668.13;;;21.31;72.90
10978;BME280;5542;48.272;10.794;2022-07-29T07:00:14;95666.31;;;21.67;70.71
10978;BME280;5542;48.272;10.794;2022-07-29T07:02:42;95667.59;;;22.06;70.66
10978;BME280;5542;48.272;10.794;2022-07-29T07:05:09;95678.38;;;22.29;69.01
10978;BME280;5542;48.272;10.794;2022-07-29T07:07:36;95679.38;;;22.55;67.08
10978;BME280;5542;48.272;10.794;2022-07-29T07:10:03;95687.09;;;22.88;66.03
10978;BME280;5542;48.272;10.794;2022-07-29T07:12:29;95683.25;;;22.94;66.76
10978;BME280;5542;48.272;10.794;2022-07-29T07:14:56;95676.13;;;22.89;66.14
10978;BME280;5542;48.272;10.794;2022-07-29T07:17:23;95684.41;;;22.79;66.97
10978;BME280;5542;48.272;10.794;2022-07-29T07:19:50;95682.25;;;22.67;67.24
10978;BME280;5542;48.272;10.794;2022-07-29T07:22:17;95681.22;;;22.55;68.34
10978;BME280;5542;48.272;10.794;2022-07-29T07:24:44;95685.81;;;22.54;69.59
10978;BME280;5542;48.272;10.794;2022-07-29T07:27:10;95682.03;;;22.55;65.97
10978;BME280;5542;48.272;10.794;2022-07-29T07:29:37;95676.19;;;22.53;66.10
10978;BME280;5542;48.272;10.794;2022-07-29T07:32:06;95677.28;;;22.52;65.91
10978;BME280;5542;48.272;10.794;2022-07-29T07:34:33;95672.06;;;22.47;65.79
10978;BME280;5542;48.272;10.794;2022-07-29T07:37:01;95678.38;;;22.51;64.68
10978;BME280;5542;48.272;10.794;2022-07-29T07:39:28;95682.41;;;22.62;64.58
10978;BME280;5542;48.272;10.794;2022-07-29T07:41:54;95688.22;;;22.64;63.55
10978;BME280;5542;48.272;10.794;2022-07-29T07:44:21;95685.00;;;22.54;65.68
10978;BME280;5542;48.272;10.794;2022-07-29T07:46:47;95689.97;;;22.60;64.94
10978;BME280;5542;48.272;10.794;2022-07-29T07:49:14;95694.09;;;22.66;65.20
10978;BME280;5542;48.272;10.794;2022-07-29T07:51:41;95692.19;;;22.67;63.67
10978;BME280;5542;48.272;10.794;2022-07-29T07:54:09;95685.50;;;22.56;64.64
10978;BME280;5542;48.272;10.794;2022-07-29T07:56:35;95687.75;;;22.40;65.95
10978;BME280;5542;48.272;10.794;2022-07-29T07:59:02;95687.94;;;22.43;65.23
10978;BME280;5542;48.272;10.794;2022-07-29T08:01:28;95683.63;;;22.34;65.57
10978;BME280;5542;48.272;10.794;2022-07-29T08:03:55;95683.41;;;22.30;66.56
10978;BME280;5542;48.272;10.794;2022-07-29T08:06:22;95681.06;;;22.29;64.87
10978;BME280;5542;48.272;10.794;2022-07-29T08:08:50;95686.41;;;22.29;65.23
10978;BME280;5542;48.272;10.794;2022-07-29T08:11:19;95688.00;;;22.30;65.21
10978;BME280;5542;48.272;10.794;2022-07-29T08:13:46;95692.25;;;22.31;64.59
10978;BME280;5542;48.272;10.794;2022-07-29T08:16:13;95694.41;;;22.42;63.27
10978;BME280;5542;48.272;10.794;2022-07-29T08:18:41;95694.56;;;22.23;64.28
10978;BME280;5542;48.272;10.794;2022-07-29T08:21:08;95699.84;;;22.15;65.31
10978;BME280;5542;48.272;10.794;2022-07-29T08:23:34;95691.03;;;22.14;65.87
10978;BME280;5542;48.272;10.794;2022-07-29T08:26:04;95702.22;;;22.16;65.72
10978;BME280;5542;48.272;10.794;2022-07-29T08:28:32;95696.16;;;22.24;65.21
10978;BME280;5542;48.272;10.794;2022-07-29T08:30:58;95699.69;;;22.34;66.51
10978;BME280;5542;48.272;10.794;2022-07-29T08:33:25;95696.75;;;22.44;66.39
10978;BME280;5542;48.272;10.794;2022-07-29T08:35:51;95698.78;;;22.61;67.52
10978;BME280;5542;48.272;10.794;2022-07-29T08:38:18;95699.94;;;22.68;67.47
10978;BME280;5542;48.272;10.794;2022-07-29T08:40:45;95704.56;;;22.99;64.82
10978;BME280;5542;48.272;10.794;2022-07-29T08:43:12;95705.34;;;22.99;64.30
10978;BME280;5542;48.272;10.794;2022-07-29T08:45:43;95697.19;;;23.05;63.75
10978;BME280;5542;48.272;10.794;2022-07-29T08:48:11;95697.97;;;23.05;63.94
10978;BME280;5542;48.272;10.794;2022-07-29T08:50:38;95696.44;;;23.13;63.44
10978;BME280;5542;48.272;10.794;2022-07-29T08:53:06;95697.78;;;23.33;61.44
10978;BME280;5542;48.272;10.794;2022-07-29T08:55:33;95703.91;;;23.24;62.35
10978;BME280;5542;48.272;10.794;2022-07-29T08:58:00;95694.19;;;23.46;61.50
10978;BME280;5542;48.272;10.794;2022-07-29T09:00:28;95695.13;;;23.41;61.41
10978;BME280;5542;48.272;10.794;2022-07-29T09:02:58;95697.47;;;23.34;61.66
10978;BME280;5542;48.272;10.794;2022-07-29T09:05:26;95702.97;;;23.29;62.10
10978;BME280;5542;48.272;10.794;2022-07-29T09:07:53;95705.09;;;23.49;60.45
10978;BME280;5542;48.272;10.794;2022-07-29T09:10:19;95711.75;;;23.52;59.19
10978;BME280;5542;48.272;10.794;2022-07-29T09:12:47;95706.34;;;23.43;61.38
10978;BME280;5542;48.272;10.794;2022-07-29T09:15:14;95700.66;;;23.45;60.49
10978;BME280;5542;48.272;10.794;2022-07-29T09:17:42;95696.72;;;23.42;60.88
10978;BME280;5542;48.272;10.794;2022-07-29T09:20:11;95705.97;;;23.28;60.37
10978;BME280;5542;48.272;10.794;2022-07-29T09:22:38;95700.50;;;23.10;60.83
10978;BME280;5542;48.272;10.794;2022-07-29T09:25:06;95710.00;;;23.16;62.62
10978;BME280;5542;48.272;10.794;2022-07-29T09:27:33;95705.03;;;23.32;64.70
10978;BME280;5542;48.272;10.794;2022-07-29T09:30:02;95701.88;;;23.70;61.75
10978;BME280;5542;48.272;10.794;2022-07-29T09:32:31;95694.34;;;24.07;60.31
10978;BME280;5542;48.272;10.794;2022-07-29T09:35:19;95703.09;;;24.47;58.25
10978;BME280;5542;48.272;10.794;2022-07-29T09:37:47;95697.38;;;24.74;57.04
10978;BME280;5542;48.272;10.794;2022-07-29T09:40:16;95697.97;;;24.89;56.74
10978;BME280;5542;48.272;10.794;2022-07-29T09:42:44;95699.66;;;25.19;56.15
10978;BME280;5542;48.272;10.794;2022-07-29T09:45:10;95694.97;;;25.46;52.79
10978;BME280;5542;48.272;10.794;2022-07-29T09:47:42;95692.28;;;25.46;54.86
10978;BME280;5542;48.272;10.794;2022-07-29T09:50:12;95681.38;;;25.63;53.74
10978;BME280;5542;48.272;10.794;2022-07-29T09:52:47;95676.75;;;25.72;53.43
10978;BME280;5542;48.272;10.794;2022-07-29T09:55:15;95685.75;;;26.06;53.68
10978;BME280;5542;48.272;10.794;2022-07-29T09:57:42;95683.53;;;26.29;54.93
10978;BME280;5542;48.272;10.794;2022-07-29T10:00:10;95685.84;;;26.72;50.24
10978;BME280;5542;48.272;10.794;2022-07-29T10:02:39;95691.66;;;26.83;50.98
10978;BME280;5542;48.272;10.794;2022-07-29T10:05:17;95684.00;;;26.85;50.91
10978;BME280;5542;48.272;10.794;2022-07-29T10:07:45;95684.56;;;26.91;50.85
10978;BME280;5542;48.272;10.794;2022-07-29T10:10:19;95685.34;;;26.79;50.31
10978;BME280;5542;48.272;10.794;2022-07-29T10:12:51;95692.44;;;26.84;49.88
10978;BME280;5542;48.272;10.794;2022-07-29T10:15:18;95696.84;;;26.88;49.54
10978;BME280;5542;48.272;10.794;2022-07-29T10:17:47;95688.19;;;26.95;48.60
10978;BME280;5542;48.272;10.794;2022-07-29T10:20:19;95689.00;;;27.08;48.96
10978;BME280;5542;48.272;10.794;2022-07-29T10:22:49;95691.38;;;27.09;49.03
10978;BME280;5542;48.272;10.794;2022-07-29T10:25:18;95686.47;;;26.90;47.84
10978;BME280;5542;48.272;10.794;2022-07-29T10:27:46;95683.22;;;26.85;48.61
10978;BME280;5542;48.272;10.794;2022-07-29T10:30:15;95691.81;;;26.66;51.04
10978;BME280;5542;48.272;10.794;2022-07-29T10:32:51;95692.25;;;26.68;50.20
10978;BME280;5542;48.272;10.794;2022-07-29T10:35:33;95688.53;;;26.60;49.75
10978;BME280;5542;48.272;10.794;2022-07-29T10:38:21;95683.16;;;26.72;48.49
10978;BME280;5542;48.272;10.794;2022-07-29T10:41:05;95686.19;;;26.71;49.21
10978;BME280;5542;48.272;10.794;2022-07-29T10:43:54;95675.81;;;26.94;51.47
10978;BME280;5542;48.272;10.794;2022-07-29T10:46:22;95670.28;;;27.36;49.67
10978;BME280;5542;48.272;10.794;2022-07-29T10:49:08;95663.63;;;27.70;50.37
10978;BME280;5542;48.272;10.794;2022-07-29T10:52:04;95658.31;;;27.98;45.38
10978;BME280;5542;48.272;10.794;2022-07-29T10:54:45;95656.47;;;28.14;47.04
10978;BME280;5542;48.272;10.794;2022-07-29T10:57:22;95657.91;;;28.24;48.48
10978;BME280;5542;48.272;10.794;2022-07-29T11:00:30;95655.06;;;28.45;44.20
10978;BME280;5542;48.272;10.794;2022-07-29T11:02:57;95643.44;;;28.72;42.23
10978;BME280;5542;48.272;10.794;2022-07-29T11:05:24;95646.03;;;28.69;41.89
10978;BME280;5542;48.272;10.794;2022-07-29T11:13:59;95619.63;;;28.94;39.25
10978;BME280;5542;48.272;10.794;2022-07-29T11:19:34;95626.72;;;28.98;38.25
10978;BME280;5542;48.272;10.794;2022-07-29T11:22:08;95622.22;;;28.90;35.89
10978;BME280;5542;48.272;10.794;2022-07-29T11:24:34;95630.13;;;28.67;39.43
10978;BME280;5542;48.272;10.794;2022-07-29T11:27:12;95624.66;;;28.79;38.93
10978;BME280;5542;48.272;10.794;2022-07-29T11:29:49;95632.03;;;28.95;39.01
10978;BME280;5542;48.272;10.794;2022-07-29T11:32:17;95625.41;;;29.08;37.05
10978;BME280;5542;48.272;10.794;2022-07-29T11:34:45;95617.38;;;28.96;36.45
10978;BME280;5542;48.272;10.794;2022-07-29T11:37:29;95623.78;;;28.75;35.84
10978;BME280;5542;48.272;10.794;2022-07-29T11:40:23;95631.84;;;28.88;37.43
10978;BME280;5542;48.272;10.794;2022-07-29T11:42:50;95624.28;;;29.09;36.97
10978;BME280;5542;48.272;10.794;2022-07-29T11:45:25;95631.97;;;29.07;38.14
10978;BME280;5542;48.272;10.794;2022-07-29T11:47:58;95625.25;;;29.01;37.45
10978;BME280;5542;48.272;10.794;2022-07-29T11:50:31;95622.31;;;28.94;36.20
10978;BME280;5542;48.272;10.794;2022-07-29T11:52:59;95620.13;;;28.83;38.19
10978;BME280;5542;48.272;10.794;2022-07-29T11:55:27;95621.84;;;28.60;38.61
10978;BME280;5542;48.272;10.794;2022-07-29T11:57:55;95621.59;;;28.81;37.69
10978;BME280;5542;48.272;10.794;2022-07-29T12:00:28;95623.69;;;28.72;37.66
10978;BME280;5542;48.272;10.794;2022-07-29T12:02:56;95619.56;;;28.62;38.88
10978;BME280;5542;48.272;10.794;2022-07-29T12:05:31;95625.25;;;28.57;37.60
10978;BME280;5542;48.272;10.794;2022-07-29T12:08:05;95620.59;;;28.42;38.42
10978;BME280;5542;48.272;10.794;2022-07-29T12:10:31;95622.84;;;28.40;38.36
10978;BME280;5542;48.272;10.794;2022-07-29T12:12:58;95626.09;;;28.33;39.46
10978;BME280;5542;48.272;10.794;2022-07-29T12:15:26;95616.22;;;28.37;39.76
10978;BME280;5542;48.272;10.794;2022-07-29T12:17:53;95622.94;;;28.43;40.00
10978;BME280;5542;48.272;10.794;2022-07-29T12:20:24;95610.44;;;28.39;39.46
10978;BME280;5542;48.272;10.794;2022-07-29T12:22:51;95608.44;;;28.36;37.75
10978;BME280;5542;48.272;10.794;2022-07-29T12:25:19;95612.66;;;28.21;38.81
10978;BME280;5542;48.272;10.794;2022-07-29T12:27:45;95605.50;;;28.28;36.58
10978;BME280;5542;48.272;10.794;2022-07-29T12:30:14;95613.47;;;28.09;38.84
10978;BME280;5542;48.272;10.794;2022-07-29T12:32:45;95615.28;;;28.05;39.26
10978;BME280;5542;48.272;10.794;2022-07-29T12:35:14;95616.41;;;28.04;37.26
10978;BME280;5542;48.272;10.794;2022-07-29T12:37:42;95615.34;;;27.80;38.54
10978;BME280;5542;48.272;10.794;2022-07-29T12:40:11;95620.56;;;27.73;40.00
10978;BME280;5542;48.272;10.794;2022-07-29T12:42:39;95618.06;;;27.68;40.70
10978;BME280;5542;48.272;10.794;2022-07-29T12:45:07;95620.09;;;27.71;39.35
10978;BME280;5542;48.272;10.794;2022-07-29T12:47:52;95617.63;;;27.54;39.46
10978;BME280;5542;48.272;10.794;2022-07-29T12:50:19;95622.09;;;27.62;38.23
10978;BME280;5542;48.272;10.794;2022-07-29T12:52:45;95621.22;;;27.34;38.55
10978;BME280;5542;48.272;10.794;2022-07-29T12:55:12;95622.91;;;27.14;39.70
10978;BME280;5542;48.272;10.794;2022-07-29T12:57:50;95617.78;;;27.00;40.09
10978;BME280;5542;48.272;10.794;2022-07-29T13:00:22;95626.13;;;26.95;41.52
10978;BME280;5542;48.272;10.794;2022-07-29T13:02:56;95619.28;;;26.97;39.70
10978;BME280;5542;48.272;10.794;2022-07-29T13:05:23;95622.50;;;26.91;40.07
10978;BME280;5542;48.272;10.794;2022-07-29T13:07:50;95626.63;;;26.76;40.74
10978;BME280;5542;48.272;10.794;2022-07-29T13:10:19;95628.41;;;26.60;42.16
10978;BME280;5542;48.272;10.794;2022-07-29T13:13:03;95637.50;;;26.55;41.95
10978;BME280;5542;48.272;10.794;2022-07-29T13:15:30;95626.25;;;26.53;41.22
10978;BME280;5542;48.272;10.794;2022-07-29T13:17:58;95621.84;;;26.48;41.17
10978;BME280;5542;48.272;10.794;2022-07-29T13:20:28;95631.56;;;26.41;42.21